createdAt,value
2022-11-29T00:00:30.946Z,9.48
2022-11-29T00:03:39.454Z,11.82
2022-11-29T00:07:08.834Z,9.82
2022-11-29T00:10:38.229Z,7.87
2022-11-29T00:13:58.145Z,16.85
2022-11-29T00:17:36.363Z,16.50
2022-11-29T00:21:10.023Z,11.63
2022-11-29T00:24:36.569Z,11.85
2022-11-29T00:28:01.352Z,8.93
2022-11-29T00:34:50.108Z,6.85
2022-11-29T00:38:07.138Z,6.50
2022-11-29T00:41:24.625Z,8.18
2022-11-29T00:45:04.343Z,9.07
2022-11-29T00:48:30.907Z,10.80
2022-11-29T00:52:11.262Z,6.65
2022-11-29T00:55:37.547Z,10.40
2022-11-29T00:59:32.069Z,4.55
2022-11-29T01:03:02.099Z,5.25
2022-11-29T01:06:42.388Z,8.43
2022-11-29T01:10:12.091Z,8.75
2022-11-29T01:13:49.056Z,16.00
2022-11-29T01:17:07.599Z,8.40
2022-11-29T01:20:36.715Z,7.70
2022-11-29T01:23:40.402Z,8.45
2022-11-29T01:26:57.622Z,9.48
2022-11-29T01:30:26.192Z,11.77
2022-11-29T01:34:02.762Z,6.20
2022-11-29T01:37:34.655Z,8.60
2022-11-29T01:40:57.812Z,12.85
2022-11-29T01:44:30.407Z,13.82
2022-11-29T01:47:58.522Z,4.68
2022-11-29T01:51:37.843Z,7.90
2022-11-29T01:55:07.902Z,8.43
2022-11-29T01:58:23.260Z,6.95
2022-11-29T02:01:40.554Z,8.05
2022-11-29T02:04:58.920Z,13.62
2022-11-29T02:08:38.370Z,11.77
2022-11-29T02:12:21.323Z,5.62
2022-11-29T02:16:05.506Z,4.12
2022-11-29T02:19:31.570Z,5.55
2022-11-29T02:23:21.695Z,8.50
2022-11-29T02:27:24.166Z,5.78
2022-11-29T02:31:20.079Z,12.93
2022-11-29T02:35:28.641Z,9.30
2022-11-29T02:39:03.040Z,12.57
2022-11-29T02:43:05.204Z,3.65
2022-11-29T02:50:17.265Z,5.62
2022-11-29T02:53:58.667Z,2.17
2022-11-29T02:57:28.523Z,5.68
2022-11-29T03:01:22.062Z,6.22
2022-11-29T03:04:49.485Z,4.45
2022-11-29T03:09:01.469Z,5.85
2022-11-29T03:12:46.018Z,6.87
2022-11-29T03:16:43.613Z,3.78
2022-11-29T03:20:50.808Z,4.45
2022-11-29T03:24:25.206Z,2.97
2022-11-29T03:28:12.257Z,7.40
2022-11-29T03:32:02.949Z,5.45
2022-11-29T03:35:47.707Z,3.22
2022-11-29T03:39:07.985Z,5.75
2022-11-29T03:42:33.487Z,5.78
2022-11-29T03:46:03.353Z,5.45
2022-11-29T03:49:32.258Z,7.62
2022-11-29T03:52:57.356Z,5.15
2022-11-29T03:56:28.008Z,4.00
2022-11-29T04:00:13.663Z,8.00
2022-11-29T04:04:18.319Z,3.58
2022-11-29T04:08:02.140Z,3.90
2022-11-29T04:11:59.222Z,3.85
2022-11-29T04:15:46.920Z,5.32
2022-11-29T04:20:07.421Z,4.07
2022-11-29T04:23:31.376Z,3.87
2022-11-29T04:27:09.527Z,8.73
2022-11-29T04:30:58.814Z,8.00
2022-11-29T04:34:28.641Z,3.47
2022-11-29T04:38:13.235Z,9.02
2022-11-29T04:41:43.640Z,22.20
2022-11-29T04:45:39.243Z,3.92
2022-11-29T04:49:22.345Z,4.85
2022-11-29T04:53:20.767Z,6.20
2022-11-29T04:57:05.241Z,8.27
2022-11-29T05:00:24.714Z,6.20
2022-11-29T05:04:27.439Z,3.92
2022-11-29T05:08:27.312Z,4.62
2022-11-29T05:11:47.577Z,7.20
2022-11-29T05:15:28.002Z,6.22
2022-11-29T05:18:58.184Z,6.37
2022-11-29T05:22:28.478Z,9.82
2022-11-29T05:25:58.724Z,8.32
2022-11-29T05:30:15.105Z,6.15
2022-11-29T05:33:38.526Z,8.98
2022-11-29T05:37:37.303Z,4.72
2022-11-29T05:41:08.287Z,4.47
2022-11-29T05:44:36.912Z,5.95
2022-11-29T05:48:19.502Z,7.20
2022-11-29T05:52:14.466Z,2.40
2022-11-29T05:55:45.270Z,4.18
2022-11-29T05:59:23.555Z,3.60
2022-11-29T06:02:28.855Z,5.90
2022-11-29T06:06:10.342Z,4.30
2022-11-29T06:13:53.213Z,6.03
2022-11-29T06:17:49.179Z,3.83
2022-11-29T06:22:03.305Z,6.03
2022-11-29T06:26:13.510Z,4.22
2022-11-29T06:29:52.155Z,12.68
2022-11-29T06:33:30.465Z,3.53
2022-11-29T06:37:51.007Z,3.10
2022-11-29T06:41:18.242Z,4.70
2022-11-29T06:44:52.644Z,6.05
2022-11-29T06:49:02.329Z,7.47
2022-11-29T06:52:59.536Z,6.43
2022-11-29T06:56:30.510Z,5.87
2022-11-29T07:00:31.457Z,10.13
2022-11-29T07:04:11.204Z,8.43
2022-11-29T07:07:50.690Z,8.50
2022-11-29T07:11:25.137Z,5.85
2022-11-29T07:15:14.305Z,8.95
2022-11-29T07:23:32.831Z,6.72
2022-11-29T07:28:10.416Z,11.43
2022-11-29T07:31:33.688Z,8.82
2022-11-29T07:35:25.971Z,6.60
2022-11-29T07:39:11.165Z,10.70
2022-11-29T07:43:23.236Z,4.72
2022-11-29T07:46:30.627Z,9.38
2022-11-29T07:50:15.351Z,8.48
2022-11-29T07:53:56.446Z,7.87
2022-11-29T07:57:53.578Z,14.68
2022-11-29T08:01:12.984Z,8.98
2022-11-29T08:04:47.487Z,5.82
2022-11-29T08:08:13.736Z,6.82
2022-11-29T08:15:32.476Z,5.82
2022-11-29T08:23:51.942Z,9.15
2022-11-29T08:27:28.236Z,5.53
2022-11-29T08:39:21.204Z,6.37
2022-11-29T08:43:01.410Z,5.90
2022-11-29T08:46:59.198Z,8.90
2022-11-29T08:58:22.340Z,5.60
2022-11-29T09:01:47.302Z,7.12
2022-11-29T09:05:15.258Z,9.10
2022-11-29T09:08:47.063Z,9.80
2022-11-29T09:12:09.487Z,15.25
2022-11-29T09:15:29.507Z,8.93
2022-11-29T09:19:08.603Z,12.18
2022-11-29T09:22:46.534Z,8.77
2022-11-29T09:26:10.906Z,12.80
2022-11-29T09:29:24.186Z,6.35
2022-11-29T09:32:56.251Z,7.37
2022-11-29T09:36:28.859Z,11.05
2022-11-29T09:40:08.168Z,7.10
2022-11-29T09:44:02.504Z,9.38
2022-11-29T09:48:11.168Z,9.77
2022-11-29T09:52:36.307Z,9.98
2022-11-29T09:56:26.758Z,13.00
2022-11-29T09:59:49.909Z,8.98
2022-11-29T10:03:23.772Z,12.70
2022-11-29T10:07:32.621Z,15.65
2022-11-29T10:11:09.570Z,11.40
2022-11-29T10:14:44.869Z,11.45
2022-11-29T10:18:21.186Z,11.70
2022-11-29T10:22:20.682Z,7.50
2022-11-29T10:26:00.508Z,7.90
2022-11-29T10:29:28.030Z,12.35
2022-11-29T10:32:52.124Z,7.80
2022-11-29T10:40:37.044Z,9.32
2022-11-29T10:43:52.929Z,14.52
2022-11-29T10:47:25.114Z,8.98
2022-11-29T10:50:43.698Z,11.63
2022-11-29T10:54:56.522Z,14.50
2022-11-29T10:58:44.854Z,11.40
2022-11-29T11:02:22.373Z,9.50
2022-11-29T11:05:42.131Z,10.25
2022-11-29T11:09:35.526Z,9.38
2022-11-29T11:13:23.018Z,9.43
2022-11-29T11:17:14.375Z,10.32
2022-11-29T11:21:00.254Z,11.35
2022-11-29T11:24:42.614Z,7.55
2022-11-29T11:28:29.041Z,9.73
2022-11-29T11:32:00.687Z,11.77
2022-11-29T11:35:37.292Z,8.88
2022-11-29T11:39:23.775Z,12.68
2022-11-29T11:43:22.154Z,10.38
2022-11-29T11:46:51.839Z,12.27
2022-11-29T11:50:45.444Z,11.15
2022-11-29T11:54:18.417Z,13.38
2022-11-29T11:57:26.223Z,15.75
2022-11-29T12:01:13.375Z,13.07
2022-11-29T12:04:37.374Z,14.98
2022-11-29T12:08:20.246Z,14.32
2022-11-29T12:12:06.642Z,12.32
2022-11-29T12:15:45.034Z,12.40
2022-11-29T12:23:11.398Z,11.63
2022-11-29T12:26:58.511Z,10.48
2022-11-29T12:30:19.262Z,12.93
2022-11-29T12:34:22.619Z,19.75
2022-11-29T12:38:40.670Z,18.90
2022-11-29T12:42:29.909Z,18.37
2022-11-29T12:46:11.745Z,15.90
2022-11-29T12:49:55.519Z,17.85
2022-11-29T12:53:56.380Z,17.42
2022-11-29T12:57:49.259Z,13.45
2022-11-29T13:05:20.542Z,16.42
2022-11-29T13:09:30.169Z,18.70
2022-11-29T13:12:55.221Z,20.45
2022-11-29T13:16:43.352Z,14.73
2022-11-29T13:21:15.488Z,24.27
2022-11-29T13:25:13.177Z,12.15
2022-11-29T13:28:48.278Z,22.80
2022-11-29T13:32:33.288Z,19.40
2022-11-29T13:36:22.098Z,11.15
2022-11-29T13:40:03.202Z,14.57
2022-11-29T13:43:47.850Z,18.48
2022-11-29T13:47:24.891Z,20.50
2022-11-29T13:50:56.471Z,15.40
2022-11-29T13:54:32.812Z,16.55
2022-11-29T14:01:47.361Z,14.10
2022-11-29T14:05:09.860Z,23.73
2022-11-29T14:12:41.339Z,18.00
2022-11-29T14:16:07.225Z,16.10
2022-11-29T14:19:32.813Z,16.35
2022-11-29T14:23:06.497Z,20.15
2022-11-29T14:26:41.116Z,16.08
2022-11-29T14:29:58.737Z,12.02
2022-11-29T14:33:24.244Z,17.02
2022-11-29T14:36:41.071Z,14.75
2022-11-29T14:40:29.143Z,16.73
2022-11-29T14:44:22.028Z,17.62
2022-11-29T14:47:52.292Z,12.30
2022-11-29T14:51:14.735Z,10.45
2022-11-29T14:54:56.632Z,18.33
2022-11-29T14:58:22.810Z,15.43
2022-11-29T15:01:56.144Z,10.75
2022-11-29T15:05:38.791Z,14.40
2022-11-29T15:09:17.354Z,16.95
2022-11-29T15:12:36.821Z,15.52
2022-11-29T15:16:34.359Z,13.82
2022-11-29T15:20:00.439Z,17.07
2022-11-29T15:23:42.722Z,15.25
2022-11-29T15:27:13.488Z,19.17
2022-11-29T15:34:28.368Z,15.75
2022-11-29T15:37:49.741Z,16.50
2022-11-29T15:41:27.478Z,15.85
2022-11-29T15:45:00.531Z,15.63
2022-11-29T15:48:30.465Z,18.90
2022-11-29T15:52:18.526Z,22.95
2022-11-29T15:55:32.107Z,20.25
2022-11-29T15:59:36.708Z,52.65
2022-11-29T16:03:07.340Z,19.35
2022-11-29T16:06:44.901Z,30.88
2022-11-29T16:10:35.372Z,21.55
2022-11-29T16:14:25.308Z,24.55
2022-11-29T16:17:42.174Z,15.48
2022-11-29T16:21:23.273Z,23.87
2022-11-29T16:25:04.393Z,15.88
2022-11-29T16:28:47.898Z,22.60
2022-11-29T16:32:21.503Z,31.55
2022-11-29T16:35:51.844Z,15.60
2022-11-29T16:39:25.200Z,22.98
2022-11-29T16:42:46.508Z,19.98
2022-11-29T16:46:27.654Z,12.82
2022-11-29T16:50:22.732Z,12.65
2022-11-29T16:53:44.464Z,20.55
2022-11-29T16:57:15.599Z,17.90
2022-11-29T17:00:47.665Z,15.68
2022-11-29T17:04:02.507Z,17.37
2022-11-29T17:07:41.491Z,23.95
2022-11-29T17:11:11.859Z,10.32
2022-11-29T17:14:26.997Z,8.60
2022-11-29T17:18:01.709Z,15.43
2022-11-29T17:21:32.768Z,15.98
2022-11-29T17:24:56.979Z,15.90
2022-11-29T17:28:31.343Z,11.43
2022-11-29T17:35:10.220Z,19.55
2022-11-29T17:38:36.987Z,14.13
2022-11-29T17:45:18.356Z,19.27
2022-11-29T17:48:49.839Z,16.55
2022-11-29T17:52:20.020Z,15.05
2022-11-29T17:58:56.010Z,18.33
2022-11-29T18:02:13.455Z,16.65
2022-11-29T18:05:34.778Z,16.80
2022-11-29T18:09:05.905Z,22.55
2022-11-29T18:12:20.600Z,22.00
2022-11-29T18:15:45.584Z,14.40
2022-11-29T18:19:20.405Z,21.25
2022-11-29T18:22:39.676Z,18.55
2022-11-29T18:26:20.344Z,21.35
2022-11-29T18:29:39.290Z,18.27
2022-11-29T18:33:05.811Z,26.10
2022-11-29T18:36:46.851Z,25.60
2022-11-29T18:40:03.792Z,21.33
2022-11-29T18:43:33.018Z,18.40
2022-11-29T18:46:51.218Z,18.25
2022-11-29T18:50:09.335Z,19.92
2022-11-29T18:53:26.300Z,27.05
2022-11-29T18:56:45.742Z,18.77
2022-11-29T19:00:17.463Z,17.42
2022-11-29T19:03:35.460Z,25.40
2022-11-29T19:07:04.242Z,19.45
2022-11-29T19:10:33.224Z,22.58
2022-11-29T19:14:03.411Z,19.00
2022-11-29T19:17:41.688Z,20.10
2022-11-29T19:21:18.982Z,26.50
2022-11-29T19:25:15.784Z,19.65
2022-11-29T19:28:30.382Z,15.00
2022-11-29T19:31:57.880Z,17.50
2022-11-29T19:35:29.939Z,18.83
2022-11-29T19:38:54.145Z,16.73
2022-11-29T19:42:13.186Z,17.35
2022-11-29T19:45:50.554Z,21.65
2022-11-29T19:49:35.635Z,19.55
2022-11-29T19:53:02.557Z,22.23
2022-11-29T19:56:35.577Z,19.90
2022-11-29T19:59:55.178Z,18.67
2022-11-29T20:03:15.599Z,17.87
2022-11-29T20:06:47.818Z,19.10
2022-11-29T20:10:08.699Z,18.15
2022-11-29T20:13:41.328Z,22.02
2022-11-29T20:17:14.418Z,14.32
2022-11-29T20:20:45.435Z,17.58
2022-11-29T20:24:06.423Z,16.60
2022-11-29T20:27:36.709Z,14.23
2022-11-29T20:31:22.376Z,22.15
2022-11-29T20:34:40.926Z,18.37
2022-11-29T20:38:48.404Z,17.10
2022-11-29T20:42:27.687Z,18.42
2022-11-29T20:45:46.169Z,16.20
2022-11-29T20:49:06.993Z,15.50
2022-11-29T20:52:44.672Z,19.77
2022-11-29T20:56:21.054Z,18.48
2022-11-29T20:59:54.668Z,20.88
2022-11-29T21:03:30.145Z,17.42
2022-11-29T21:06:59.718Z,14.13
2022-11-29T21:10:31.397Z,16.30
2022-11-29T21:14:14.128Z,15.07
2022-11-29T21:17:51.943Z,12.37
2022-11-29T21:25:25.450Z,14.87
2022-11-29T21:29:21.159Z,11.27
2022-11-29T21:32:58.113Z,11.35
2022-11-29T21:36:32.750Z,16.27
2022-11-29T21:39:58.570Z,16.77
2022-11-29T21:44:04.516Z,10.77
2022-11-29T21:46:54.042Z,19.60
2022-11-29T21:50:21.352Z,18.42
2022-11-29T21:53:41.603Z,18.52
2022-11-29T21:57:14.984Z,14.30
2022-11-29T22:00:37.267Z,17.23
2022-11-29T22:03:53.667Z,14.57
2022-11-29T22:07:35.072Z,12.68
2022-11-29T22:14:27.181Z,11.90
2022-11-29T22:17:46.233Z,14.87
2022-11-29T22:21:14.664Z,13.15
2022-11-29T22:24:55.296Z,17.00
2022-11-29T22:28:24.757Z,14.30
2022-11-29T22:32:03.293Z,16.30
2022-11-29T22:35:36.008Z,11.55
2022-11-29T22:39:13.457Z,14.32
2022-11-29T22:42:48.580Z,13.77
2022-11-29T22:46:29.092Z,12.43
2022-11-29T22:50:11.104Z,17.42
2022-11-29T22:53:48.264Z,14.65
2022-11-29T22:57:44.267Z,15.02
2022-11-29T23:01:23.274Z,10.07
2022-11-29T23:04:50.710Z,11.30
2022-11-29T23:08:19.243Z,13.07
2022-11-29T23:12:03.165Z,12.48
2022-11-29T23:19:42.571Z,12.40
2022-11-29T23:27:27.237Z,14.15
2022-11-29T23:31:04.967Z,12.32
2022-11-29T23:34:46.814Z,12.65
2022-11-29T23:38:26.759Z,9.13
2022-11-29T23:41:52.634Z,16.42
2022-11-29T23:50:08.502Z,12.57
2022-11-29T23:53:52.478Z,14.83
2022-11-29T23:57:18.968Z,14.70
